Time;durP1;ratioP1;P1;durP2;ratioP2;P2;SDS_P1;SDS_P2;PMS_P1;PMS_P2;Temp;Humidity;BMP_temperature;BMP_pressure;BME280_temperature;BME280_humidity;BME280_pressure;Samples;Min_cycle;Max_cycle;Signal;HPM_P1;HPM_P2
2023/01/14 00:01:12;;;;;;;120.63;59.55;;;;;;;;;;4847349;29;20119;-72
2023/01/14 00:03:38;;;;;;;107.68;52.83;;;;;;;;;;4876187;29;20093;-72
2023/01/14 00:06:04;;;;;;;99.60;51.13;;;;;;;;;;4879466;29;20037;-72
2023/01/14 00:08:30;;;;;;;93.97;46.58;;;;;;;;;;4881609;29;20043;-72
2023/01/14 00:11:00;;;;;;;79.80;36.92;;;;;;;;;;4871121;29;20492;-72
2023/01/14 00:13:26;;;;;;;68.88;32.50;;;;;;;;;;4884111;29;20680;-72
2023/01/14 00:15:56;;;;;;;58.40;27.48;;;;;;;;;;4878908;29;20037;-72
2023/01/14 00:18:23;;;;;;;55.00;28.20;;;;;;;;;;4882337;29;20071;-72
2023/01/14 00:21:00;;;;;;;64.90;33.03;;;;;;;;;;4884068;29;20029;-73
2023/01/14 00:23:28;;;;;;;57.10;29.85;;;;;;;;;;4878444;29;20398;-72
2023/01/14 00:25:53;;;;;;;50.72;26.70;;;;;;;;;;4875789;29;20021;-72
2023/01/14 00:28:19;;;;;;;52.03;27.08;;;;;;;;;;4861639;29;20377;-72
2023/01/14 00:30:45;;;;;;;58.78;30.02;;;;;;;;;;4882380;29;20029;-73
2023/01/14 00:33:11;;;;;;;93.70;38.13;;;;;;;;;;4847271;29;20059;-72
2023/01/14 00:35:38;;;;;;;61.45;30.85;;;;;;;;;;4865698;29;20028;-72
2023/01/14 00:38:03;;;;;;;82.57;40.50;;;;;;;;;;4874377;29;20093;-72
2023/01/14 00:40:29;;;;;;;79.53;37.97;;;;;;;;;;4862846;29;20392;-73
2023/01/14 00:42:55;;;;;;;61.28;32.35;;;;;;;;;;4860803;29;20033;-72
2023/01/14 00:45:20;;;;;;;51.90;29.02;;;;;;;;;;4855138;29;20459;-72
2023/01/14 00:47:46;;;;;;;59.10;29.90;;;;;;;;;;4859163;29;20040;-72
2023/01/14 00:50:12;;;;;;;59.00;29.92;;;;;;;;;;4856520;29;20095;-73
2023/01/14 00:52:37;;;;;;;59.35;29.35;;;;;;;;;;4873510;29;20048;-73
2023/01/14 00:55:03;;;;;;;46.35;26.40;;;;;;;;;;4877516;29;20024;-73
2023/01/14 00:57:30;;;;;;;56.42;28.42;;;;;;;;;;4873652;29;20037;-73
2023/01/14 00:59:56;;;;;;;49.58;27.55;;;;;;;;;;4861214;29;20738;-72
2023/01/14 01:02:22;;;;;;;55.33;28.75;;;;;;;;;;4884224;29;20052;-72
2023/01/14 01:04:47;;;;;;;55.83;29.55;;;;;;;;;;4878601;29;20017;-73
2023/01/14 01:07:13;;;;;;;57.15;29.77;;;;;;;;;;4862344;29;20188;-72
2023/01/14 01:09:39;;;;;;;49.22;25.85;;;;;;;;;;4859429;29;20025;-72
2023/01/14 01:12:05;;;;;;;56.05;28.50;;;;;;;;;;4858842;29;20570;-72
2023/01/14 01:14:31;;;;;;;51.88;28.98;;;;;;;;;;4862590;29;20025;-72
2023/01/14 01:16:57;;;;;;;62.03;30.10;;;;;;;;;;4876674;29;20116;-72
2023/01/14 01:19:22;;;;;;;75.10;34.10;;;;;;;;;;4863768;29;20108;-72
2023/01/14 01:21:48;;;;;;;71.60;35.42;;;;;;;;;;4879019;29;20106;-73
2023/01/14 01:24:14;;;;;;;67.25;35.92;;;;;;;;;;4873872;29;20037;-73
2023/01/14 01:26:40;;;;;;;63.53;32.65;;;;;;;;;;4859547;29;20132;-73
2023/01/14 01:29:05;;;;;;;60.50;31.45;;;;;;;;;;4880907;29;20416;-72
2023/01/14 01:31:32;;;;;;;65.68;34.22;;;;;;;;;;4883753;29;20044;-72
2023/01/14 01:33:57;;;;;;;74.70;38.28;;;;;;;;;;4890558;29;20064;-72
2023/01/14 01:36:26;;;;;;;76.05;38.38;;;;;;;;;;4875627;29;20037;-72
2023/01/14 01:38:52;;;;;;;63.75;34.13;;;;;;;;;;4868650;29;20758;-73
2023/01/14 01:41:25;;;;;;;57.28;29.63;;;;;;;;;;4866275;29;20373;-72
2023/01/14 01:44:07;;;;;;;49.60;27.83;;;;;;;;;;4881355;29;20123;-72
2023/01/14 01:46:34;;;;;;;54.33;28.75;;;;;;;;;;4864569;29;20505;-72
2023/01/14 01:49:05;;;;;;;67.75;34.00;;;;;;;;;;4880537;29;20033;-72
2023/01/14 01:51:46;;;;;;;64.85;32.25;;;;;;;;;;4880203;29;20146;-72
2023/01/14 01:54:12;;;;;;;60.80;31.50;;;;;;;;;;4856378;29;20109;-72
2023/01/14 01:56:39;;;;;;;62.63;33.17;;;;;;;;;;4867251;29;20020;-72
2023/01/14 01:59:10;;;;;;;67.50;33.20;;;;;;;;;;4861120;29;20045;-72
2023/01/14 02:01:37;;;;;;;56.03;29.13;;;;;;;;;;4878454;29;20055;-73
2023/01/14 02:04:04;;;;;;;53.38;27.77;;;;;;;;;;4878383;29;20024;-72
2023/01/14 02:06:30;;;;;;;52.30;26.67;;;;;;;;;;4867034;29;20085;-72
2023/01/14 02:08:56;;;;;;;47.20;24.92;;;;;;;;;;4874743;29;20025;-72
2023/01/14 02:11:50;;;;;;;54.67;27.13;;;;;;;;;;4881832;29;20554;-73
2023/01/14 02:14:44;;;;;;;49.40;25.00;;;;;;;;;;4874067;29;20037;-72
2023/01/14 02:17:29;;;;;;;49.33;27.60;;;;;;;;;;4852367;29;20042;-72
2023/01/14 02:20:22;;;;;;;50.40;28.17;;;;;;;;;;4855820;29;20075;-72
2023/01/14 02:23:24;;;;;;;49.30;25.77;;;;;;;;;;4856287;29;20110;-72
2023/01/14 02:26:13;;;;;;;50.78;25.55;;;;;;;;;;4862299;29;20045;-73
2023/01/14 02:29:21;;;;;;;43.40;22.88;;;;;;;;;;4835672;29;20041;-72
2023/01/14 02:32:05;;;;;;;41.22;22.63;;;;;;;;;;4792982;29;20125;-72
2023/01/14 02:35:16;;;;;;;37.13;20.35;;;;;;;;;;4794177;29;20051;-72
2023/01/14 02:37:59;;;;;;;38.33;20.15;;;;;;;;;;4784983;29;20039;-72
2023/01/14 02:40:42;;;;;;;35.30;19.08;;;;;;;;;;4785795;29;20058;-72
2023/01/14 02:46:30;;;;;;;40.85;20.30;;;;;;;;;;4775450;30;20127;-73
2023/01/14 02:49:04;;;;;;;42.15;25.48;;;;;;;;;;4793546;29;20042;-73
2023/01/14 02:51:31;;;;;;;48.97;23.80;;;;;;;;;;4799704;29;20099;-73
2023/01/14 02:53:58;;;;;;;45.47;25.10;;;;;;;;;;4811957;29;20030;-73
2023/01/14 02:56:26;;;;;;;43.97;23.90;;;;;;;;;;4808689;29;20031;-73
2023/01/14 02:59:35;;;;;;;44.92;24.40;;;;;;;;;;4799102;29;20053;-73
2023/01/14 03:02:27;;;;;;;44.30;22.63;;;;;;;;;;4776968;29;20464;-73
2023/01/14 03:05:16;;;;;;;40.17;23.15;;;;;;;;;;4764750;29;20065;-73
2023/01/14 03:08:11;;;;;;;42.53;24.73;;;;;;;;;;4836223;29;20141;-73
2023/01/14 03:10:45;;;;;;;44.25;24.70;;;;;;;;;;4776488;29;24514;-73
2023/01/14 03:13:37;;;;;;;42.13;22.67;;;;;;;;;;4749391;30;20553;-73
2023/01/14 03:16:27;;;;;;;35.38;21.73;;;;;;;;;;4764366;30;20064;-73
2023/01/14 03:25:16;;;;;;;30.25;16.00;;;;;;;;;;4845445;29;20164;-71
2023/01/14 03:27:46;;;;;;;30.05;15.90;;;;;;;;;;4838346;29;20045;-72
2023/01/14 03:30:27;;;;;;;30.17;15.95;;;;;;;;;;4854614;29;20029;-71
2023/01/14 03:33:06;;;;;;;31.15;16.38;;;;;;;;;;4863901;29;20044;-71
2023/01/14 03:35:35;;;;;;;33.00;16.92;;;;;;;;;;4866091;29;20042;-70
2023/01/14 03:38:11;;;;;;;31.17;15.27;;;;;;;;;;4867222;29;20504;-72
2023/01/14 03:40:39;;;;;;;27.20;14.52;;;;;;;;;;4865204;29;20507;-72
2023/01/14 03:43:28;;;;;;;30.77;15.63;;;;;;;;;;4866988;29;20451;-71
2023/01/14 03:45:54;;;;;;;25.92;14.07;;;;;;;;;;4860228;29;20134;-72
2023/01/14 03:48:20;;;;;;;27.45;14.88;;;;;;;;;;4858397;29;20067;-71
2023/01/14 03:51:02;;;;;;;29.50;14.57;;;;;;;;;;4865835;29;20034;-73
2023/01/14 03:53:52;;;;;;;24.80;14.75;;;;;;;;;;4864367;29;20083;-71
2023/01/14 03:56:23;;;;;;;31.15;16.20;;;;;;;;;;4865074;29;20521;-71
2023/01/14 03:59:02;;;;;;;28.88;14.50;;;;;;;;;;4863996;29;20059;-71
2023/01/14 04:01:39;;;;;;;32.28;15.85;;;;;;;;;;4868501;29;20073;-71
2023/01/14 04:04:05;;;;;;;33.15;16.55;;;;;;;;;;4854860;29;20484;-71
2023/01/14 04:06:32;;;;;;;36.38;16.35;;;;;;;;;;4865325;29;20116;-71
2023/01/14 04:08:58;;;;;;;33.38;17.48;;;;;;;;;;4866287;29;20192;-70
2023/01/14 04:11:23;;;;;;;32.85;15.18;;;;;;;;;;4870476;29;20040;-72
2023/01/14 04:16:33;;;;;;;26.48;14.30;;;;;;;;;;4871055;29;20029;-71
2023/01/14 04:18:59;;;;;;;24.45;13.93;;;;;;;;;;4847436;29;20086;-71
2023/01/14 04:21:25;;;;;;;26.52;13.80;;;;;;;;;;4867354;29;20376;-71
2023/01/14 04:23:50;;;;;;;26.60;14.75;;;;;;;;;;4864797;29;20460;-71
2023/01/14 04:26:16;;;;;;;25.65;14.32;;;;;;;;;;4870763;29;20045;-70
2023/01/14 04:28:42;;;;;;;27.02;13.93;;;;;;;;;;4868844;29;20086;-70
2023/01/14 04:31:08;;;;;;;29.05;14.65;;;;;;;;;;4870791;29;20046;-72
2023/01/14 04:33:33;;;;;;;34.00;16.13;;;;;;;;;;4869525;29;20391;-71
2023/01/14 04:35:59;;;;;;;35.55;17.85;;;;;;;;;;4868374;29;20049;-69
2023/01/14 04:38:25;;;;;;;31.40;15.98;;;;;;;;;;4862186;29;20028;-71
2023/01/14 04:40:54;;;;;;;29.60;14.40;;;;;;;;;;4846989;29;20049;-71
2023/01/14 04:43:20;;;;;;;28.20;13.50;;;;;;;;;;4864498;29;20087;-71
2023/01/14 04:45:51;;;;;;;34.30;14.68;;;;;;;;;;4866351;29;20061;-71
2023/01/14 04:48:21;;;;;;;32.00;16.40;;;;;;;;;;4865112;29;20049;-71
2023/01/14 04:50:47;;;;;;;35.05;15.50;;;;;;;;;;4869428;29;20108;-71
2023/01/14 04:53:20;;;;;;;38.83;15.82;;;;;;;;;;4864937;29;20053;-71
2023/01/14 04:55:47;;;;;;;28.67;16.17;;;;;;;;;;4860873;29;20037;-72
2023/01/14 04:58:16;;;;;;;30.17;15.88;;;;;;;;;;4872405;29;20025;-70
2023/01/14 05:00:42;;;;;;;30.00;15.48;;;;;;;;;;4873969;29;20033;-71
2023/01/14 05:03:10;;;;;;;28.23;15.02;;;;;;;;;;4889936;29;20029;-71
2023/01/14 05:05:37;;;;;;;30.60;16.40;;;;;;;;;;4883926;29;20049;-71
2023/01/14 05:08:04;;;;;;;38.63;18.63;;;;;;;;;;4873659;29;20030;-71
2023/01/14 05:10:31;;;;;;;46.67;18.45;;;;;;;;;;4864874;29;20043;-71
2023/01/14 05:12:56;;;;;;;36.70;18.23;;;;;;;;;;4863572;29;20025;-71
2023/01/14 05:15:23;;;;;;;37.13;18.80;;;;;;;;;;4870411;29;20159;-70
2023/01/14 05:17:49;;;;;;;28.13;17.00;;;;;;;;;;4864921;29;20026;-72
2023/01/14 05:20:16;;;;;;;38.22;16.73;;;;;;;;;;4864352;29;20033;-72
2023/01/14 05:22:41;;;;;;;35.20;18.63;;;;;;;;;;4861516;29;20039;-71
2023/01/14 05:25:07;;;;;;;34.28;17.88;;;;;;;;;;4860900;29;20041;-71
2023/01/14 05:27:33;;;;;;;33.13;17.52;;;;;;;;;;4870280;29;20052;-72
2023/01/14 05:29:59;;;;;;;34.97;16.58;;;;;;;;;;4862642;29;20049;-71
2023/01/14 05:32:25;;;;;;;27.75;14.52;;;;;;;;;;4860043;29;20045;-71
2023/01/14 05:34:51;;;;;;;27.58;14.30;;;;;;;;;;4867174;29;20029;-71
2023/01/14 05:37:17;;;;;;;25.73;13.05;;;;;;;;;;4862843;29;20395;-71
2023/01/14 05:39:43;;;;;;;25.67;12.95;;;;;;;;;;4860458;29;20041;-71
2023/01/14 05:47:37;;;;;;;24.45;12.55;;;;;;;;;;4855341;29;20041;-71
2023/01/14 05:50:03;;;;;;;29.88;13.45;;;;;;;;;;4852621;29;20505;-72
2023/01/14 05:52:29;;;;;;;33.33;16.77;;;;;;;;;;4863578;29;20041;-72
2023/01/14 05:54:55;;;;;;;35.70;15.65;;;;;;;;;;4861986;29;20483;-72
2023/01/14 05:57:20;;;;;;;23.35;13.60;;;;;;;;;;4850177;29;20104;-72
2023/01/14 05:59:46;;;;;;;30.20;14.60;;;;;;;;;;4860950;29;20033;-73
2023/01/14 06:07:40;;;;;;;34.80;13.55;;;;;;;;;;4867012;29;20044;-73
2023/01/14 06:10:07;;;;;;;30.55;13.70;;;;;;;;;;4863078;29;20021;-72
2023/01/14 06:15:17;;;;;;;31.40;14.32;;;;;;;;;;4866407;29;20033;-74
2023/01/14 06:17:46;;;;;;;29.35;13.73;;;;;;;;;;4865741;29;20078;-72
2023/01/14 06:20:12;;;;;;;30.48;14.23;;;;;;;;;;4862009;29;20041;-72
2023/01/14 06:22:38;;;;;;;26.95;14.18;;;;;;;;;;4857193;29;20052;-72
2023/01/14 06:25:05;;;;;;;30.75;14.95;;;;;;;;;;4846784;29;20033;-72
2023/01/14 06:27:31;;;;;;;29.63;13.70;;;;;;;;;;4850019;29;20078;-71
2023/01/14 06:29:57;;;;;;;31.40;15.77;;;;;;;;;;4863994;29;20029;-72
2023/01/14 06:32:22;;;;;;;34.35;16.30;;;;;;;;;;4873651;29;20064;-70
2023/01/14 06:34:48;;;;;;;37.08;18.25;;;;;;;;;;4860757;29;20084;-72
2023/01/14 06:37:14;;;;;;;42.75;22.30;;;;;;;;;;4858996;29;20036;-72
2023/01/14 06:39:41;;;;;;;37.65;21.10;;;;;;;;;;4862176;29;20030;-74
2023/01/14 06:42:09;;;;;;;42.60;22.10;;;;;;;;;;4860329;29;20033;-72
2023/01/14 06:44:35;;;;;;;46.53;20.33;;;;;;;;;;4868148;29;20041;-73
2023/01/14 06:47:01;;;;;;;34.47;18.77;;;;;;;;;;4857161;29;20038;-72
2023/01/14 06:49:27;;;;;;;39.58;18.48;;;;;;;;;;4861635;29;20071;-74
2023/01/14 06:51:55;;;;;;;37.88;19.90;;;;;;;;;;4862871;29;20068;-73
2023/01/14 06:54:21;;;;;;;39.75;19.58;;;;;;;;;;4864929;29;20103;-73
2023/01/14 06:56:46;;;;;;;39.03;18.83;;;;;;;;;;4860000;29;20018;-72
2023/01/14 06:59:12;;;;;;;33.92;18.73;;;;;;;;;;4860781;29;20048;-73
2023/01/14 07:01:47;;;;;;;36.53;19.77;;;;;;;;;;4862217;29;20131;-73
2023/01/14 07:04:13;;;;;;;37.20;18.50;;;;;;;;;;4868041;29;20053;-72
2023/01/14 07:06:39;;;;;;;33.17;18.75;;;;;;;;;;4844042;29;20040;-73
2023/01/14 07:09:05;;;;;;;31.30;16.77;;;;;;;;;;4855749;29;20041;-72
2023/01/14 07:11:30;;;;;;;34.67;17.17;;;;;;;;;;4861276;29;20025;-72
2023/01/14 07:13:56;;;;;;;27.65;16.13;;;;;;;;;;4867763;29;20041;-72
2023/01/14 07:16:22;;;;;;;28.35;14.52;;;;;;;;;;4863823;29;20494;-72
2023/01/14 07:18:47;;;;;;;27.83;15.18;;;;;;;;;;4872187;29;20033;-73
2023/01/14 07:21:13;;;;;;;24.65;13.95;;;;;;;;;;4860192;29;20026;-73
2023/01/14 07:23:39;;;;;;;23.92;13.80;;;;;;;;;;4861940;29;20477;-76
2023/01/14 07:26:04;;;;;;;31.02;14.50;;;;;;;;;;4862173;29;20108;-75
2023/01/14 07:28:30;;;;;;;25.40;14.85;;;;;;;;;;4861506;29;20418;-74
2023/01/14 07:30:56;;;;;;;27.98;16.77;;;;;;;;;;4858270;29;20057;-75
2023/01/14 07:33:23;;;;;;;31.80;15.25;;;;;;;;;;4869737;29;20037;-76
2023/01/14 07:35:51;;;;;;;34.88;17.13;;;;;;;;;;4860768;29;20035;-75
2023/01/14 07:38:19;;;;;;;35.83;18.77;;;;;;;;;;4858174;29;20412;-74
2023/01/14 07:40:45;;;;;;;33.85;17.73;;;;;;;;;;4847756;29;20084;-75
2023/01/14 07:43:11;;;;;;;27.73;16.75;;;;;;;;;;4865577;29;20041;-73
2023/01/14 07:45:37;;;;;;;28.73;15.55;;;;;;;;;;4861172;29;20032;-72
2023/01/14 07:48:03;;;;;;;33.42;16.58;;;;;;;;;;4859739;29;20033;-73
2023/01/14 07:50:28;;;;;;;33.50;17.35;;;;;;;;;;4845381;29;20472;-73
2023/01/14 07:52:56;;;;;;;26.02;14.95;;;;;;;;;;4861903;29;20127;-73
2023/01/14 07:55:25;;;;;;;28.05;15.80;;;;;;;;;;4861062;29;20018;-73
2023/01/14 07:57:51;;;;;;;28.40;16.10;;;;;;;;;;4863488;29;20033;-73
2023/01/14 08:00:17;;;;;;;27.52;14.75;;;;;;;;;;4861405;29;20037;-73
2023/01/14 08:02:44;;;;;;;34.45;15.88;;;;;;;;;;4867249;29;20092;-73
2023/01/14 08:05:10;;;;;;;32.58;18.15;;;;;;;;;;4866844;29;20029;-73
2023/01/14 08:07:36;;;;;;;38.42;19.88;;;;;;;;;;4865384;29;20037;-72
2023/01/14 08:10:02;;;;;;;38.25;21.00;;;;;;;;;;4862145;29;20403;-73
2023/01/14 08:12:30;;;;;;;38.63;21.40;;;;;;;;;;4863454;29;20045;-73
2023/01/14 08:14:56;;;;;;;36.55;20.08;;;;;;;;;;4854412;29;20029;-73
2023/01/14 08:17:24;;;;;;;33.08;19.17;;;;;;;;;;4866438;29;20045;-73
2023/01/14 08:19:51;;;;;;;34.28;16.95;;;;;;;;;;4866232;29;20166;-72
2023/01/14 08:22:17;;;;;;;33.67;16.33;;;;;;;;;;4864634;29;20037;-73
2023/01/14 08:24:42;;;;;;;31.55;16.33;;;;;;;;;;4861635;29;20158;-72
2023/01/14 08:27:08;;;;;;;27.45;15.90;;;;;;;;;;4864170;29;20120;-74
2023/01/14 08:29:34;;;;;;;31.67;16.08;;;;;;;;;;4851150;29;20471;-71
2023/01/14 08:32:00;;;;;;;28.60;16.42;;;;;;;;;;4861947;29;20033;-73
2023/01/14 08:34:27;;;;;;;33.75;15.90;;;;;;;;;;4861342;29;20110;-75
2023/01/14 08:36:53;;;;;;;31.17;17.50;;;;;;;;;;4868490;29;20121;-75
2023/01/14 08:39:18;;;;;;;31.95;18.27;;;;;;;;;;4861474;29;20299;-74
2023/01/14 08:41:44;;;;;;;30.80;17.95;;;;;;;;;;4864284;29;20041;-76
2023/01/14 08:44:10;;;;;;;41.60;17.85;;;;;;;;;;4862722;29;20057;-73
2023/01/14 08:46:38;;;;;;;29.33;16.08;;;;;;;;;;4864503;29;20384;-72
2023/01/14 08:49:04;;;;;;;34.72;17.05;;;;;;;;;;4864112;29;20037;-73
2023/01/14 08:51:30;;;;;;;32.75;16.20;;;;;;;;;;4859945;29;20110;-72
2023/01/14 08:53:57;;;;;;;32.55;16.67;;;;;;;;;;4861757;29;20033;-71
2023/01/14 08:56:22;;;;;;;37.78;20.13;;;;;;;;;;4847028;29;20525;-72
2023/01/14 08:58:48;;;;;;;36.63;20.65;;;;;;;;;;4861841;29;20116;-74
2023/01/14 09:01:14;;;;;;;30.27;18.58;;;;;;;;;;4864945;29;20049;-72
2023/01/14 09:03:42;;;;;;;37.55;17.88;;;;;;;;;;4866181;29;20469;-70
2023/01/14 09:06:11;;;;;;;27.98;16.55;;;;;;;;;;4862014;29;20061;-72
2023/01/14 09:17:07;;;;;;;28.80;15.85;;;;;;;;;;4868009;29;20032;-73
2023/01/14 09:19:38;;;;;;;26.42;14.75;;;;;;;;;;4865204;29;20046;-71
2023/01/14 09:22:05;;;;;;;26.38;14.40;;;;;;;;;;4866709;29;20041;-75
2023/01/14 09:24:30;;;;;;;26.70;13.40;;;;;;;;;;4862771;29;20032;-72
2023/01/14 09:26:56;;;;;;;26.73;14.35;;;;;;;;;;4865415;29;20053;-75
2023/01/14 09:29:22;;;;;;;24.88;14.50;;;;;;;;;;4879413;29;20040;-72
2023/01/14 09:31:48;;;;;;;38.15;16.08;;;;;;;;;;4881011;29;20037;-73
2023/01/14 09:34:13;;;;;;;24.52;14.30;;;;;;;;;;4864921;29;20036;-74
2023/01/14 09:36:40;;;;;;;26.00;15.50;;;;;;;;;;4876732;29;20046;-71
2023/01/14 09:39:06;;;;;;;29.10;15.30;;;;;;;;;;4834692;29;20116;-72
2023/01/14 09:41:35;;;;;;;26.05;15.25;;;;;;;;;;4863592;29;20116;-72
2023/01/14 09:44:04;;;;;;;27.70;14.95;;;;;;;;;;4863183;29;20037;-73
2023/01/14 09:46:31;;;;;;;28.33;15.25;;;;;;;;;;4862268;29;20064;-72
2023/01/14 09:49:01;;;;;;;29.67;16.55;;;;;;;;;;4867893;29;20059;-73
2023/01/14 09:51:48;;;;;;;25.65;14.68;;;;;;;;;;4844695;29;20033;-73
2023/01/14 09:54:35;;;;;;;28.50;15.23;;;;;;;;;;4868655;29;20069;-72
2023/01/14 09:57:22;;;;;;;24.30;14.52;;;;;;;;;;4865399;29;20124;-73
2023/01/14 10:00:06;;;;;;;28.58;15.63;;;;;;;;;;4863558;29;20037;-74
2023/01/14 10:02:48;;;;;;;27.45;14.20;;;;;;;;;;4852425;29;20723;-72
2023/01/14 10:05:22;;;;;;;26.90;14.13;;;;;;;;;;4859555;29;20044;-73
2023/01/14 10:07:49;;;;;;;31.40;14.27;;;;;;;;;;4859273;29;20045;-72
2023/01/14 10:10:32;;;;;;;26.98;14.95;;;;;;;;;;4856388;29;20522;-72
2023/01/14 10:13:04;;;;;;;29.30;16.08;;;;;;;;;;4842023;29;20041;-72
2023/01/14 10:15:32;;;;;;;35.92;18.52;;;;;;;;;;4863162;29;20040;-72
2023/01/14 10:18:11;;;;;;;25.48;15.05;;;;;;;;;;4860464;29;20049;-72
2023/01/14 10:20:49;;;;;;;28.35;18.77;;;;;;;;;;4857496;29;20116;-73
2023/01/14 10:23:18;;;;;;;32.65;18.38;;;;;;;;;;4864312;29;20036;-74
2023/01/14 10:25:49;;;;;;;29.98;18.38;;;;;;;;;;4858656;29;20044;-72
2023/01/14 10:28:17;;;;;;;32.60;19.88;;;;;;;;;;4868887;29;20041;-73
2023/01/14 10:30:46;;;;;;;36.10;20.20;;;;;;;;;;4868952;29;20033;-73
2023/01/14 10:33:15;;;;;;;35.15;19.42;;;;;;;;;;4869287;29;20041;-71
2023/01/14 10:35:44;;;;;;;33.53;19.50;;;;;;;;;;4842997;29;20081;-73
2023/01/14 10:38:22;;;;;;;40.75;22.30;;;;;;;;;;4863365;29;20052;-74
2023/01/14 10:40:50;;;;;;;36.13;21.23;;;;;;;;;;4860204;29;20029;-74
2023/01/14 10:43:25;;;;;;;43.20;22.52;;;;;;;;;;4866627;29;20117;-73
2023/01/14 10:45:51;;;;;;;34.75;19.33;;;;;;;;;;4858140;29;20040;-76
2023/01/14 10:48:24;;;;;;;32.97;19.40;;;;;;;;;;4844842;29;20029;-75
2023/01/14 10:50:51;;;;;;;34.03;20.38;;;;;;;;;;4859438;29;20109;-75
2023/01/14 10:53:22;;;;;;;36.30;19.83;;;;;;;;;;4864102;29;20038;-74
2023/01/14 10:56:01;;;;;;;34.22;20.30;;;;;;;;;;4861762;29;20048;-74
2023/01/14 10:58:41;;;;;;;44.45;21.35;;;;;;;;;;4830353;29;20181;-75
2023/01/14 11:01:10;;;;;;;34.53;20.23;;;;;;;;;;4854433;29;20086;-75
2023/01/14 11:03:40;;;;;;;35.20;18.88;;;;;;;;;;4858303;29;20029;-74
2023/01/14 11:06:12;;;;;;;38.50;20.58;;;;;;;;;;4863105;29;20033;-77
2023/01/14 11:08:41;;;;;;;38.83;20.70;;;;;;;;;;4857579;29;20119;-77
2023/01/14 11:11:13;;;;;;;37.92;19.92;;;;;;;;;;4853434;29;20047;-75
2023/01/14 11:13:48;;;;;;;36.80;20.38;;;;;;;;;;4860880;29;20035;-75
2023/01/14 11:16:34;;;;;;;34.97;21.17;;;;;;;;;;4857152;29;20037;-76
2023/01/14 11:19:16;;;;;;;35.75;20.42;;;;;;;;;;4846317;29;20049;-76
2023/01/14 11:22:10;;;;;;;37.13;20.33;;;;;;;;;;4857527;29;20094;-75
2023/01/14 11:25:00;;;;;;;33.13;19.30;;;;;;;;;;4861306;29;20049;-76
2023/01/14 11:27:29;;;;;;;34.85;19.17;;;;;;;;;;4860466;29;20281;-76
2023/01/14 11:29:57;;;;;;;30.98;19.25;;;;;;;;;;4861299;29;20089;-78
2023/01/14 11:32:33;;;;;;;35.65;18.60;;;;;;;;;;4863476;29;20124;-75
2023/01/14 11:35:01;;;;;;;32.78;19.23;;;;;;;;;;4863936;29;20045;-76
2023/01/14 11:37:45;;;;;;;38.10;20.23;;;;;;;;;;4862046;29;20052;-74
2023/01/14 11:43:25;;;;;;;35.33;19.60;;;;;;;;;;4884951;29;20037;-75
2023/01/14 11:46:12;;;;;;;36.45;21.40;;;;;;;;;;4891828;29;20062;-74
2023/01/14 11:48:40;;;;;;;29.85;18.15;;;;;;;;;;4895703;29;20541;-76
2023/01/14 11:51:18;;;;;;;31.88;18.48;;;;;;;;;;4873795;29;20132;-76
2023/01/14 11:53:49;;;;;;;31.85;18.35;;;;;;;;;;4894734;29;20041;-76
2023/01/14 11:56:37;;;;;;;30.75;18.08;;;;;;;;;;4882001;29;20487;-74
2023/01/14 11:59:24;;;;;;;34.53;18.50;;;;;;;;;;4887033;29;20045;-75
2023/01/14 12:01:55;;;;;;;35.28;19.10;;;;;;;;;;4898136;29;20049;-74
2023/01/14 12:04:28;;;;;;;28.67;17.60;;;;;;;;;;4895364;29;20057;-75
2023/01/14 12:07:06;;;;;;;36.17;18.92;;;;;;;;;;4891118;29;20056;-74
2023/01/14 12:09:43;;;;;;;30.40;17.50;;;;;;;;;;4900616;29;20052;-75
2023/01/14 12:12:20;;;;;;;29.75;16.63;;;;;;;;;;4884837;29;20127;-75
2023/01/14 12:17:49;;;;;;;25.27;14.63;;;;;;;;;;4898619;29;20040;-73
2023/01/14 12:20:19;;;;;;;26.75;16.02;;;;;;;;;;4893088;29;20063;-75
2023/01/14 12:23:12;;;;;;;27.20;15.43;;;;;;;;;;4902870;29;20032;-75
2023/01/14 12:25:42;;;;;;;33.17;15.45;;;;;;;;;;4898068;29;20105;-76
2023/01/14 12:28:19;;;;;;;27.20;15.60;;;;;;;;;;4899430;29;20408;-75
2023/01/14 12:30:50;;;;;;;29.00;16.20;;;;;;;;;;4902862;29;20729;-74
2023/01/14 12:33:31;;;;;;;30.88;16.55;;;;;;;;;;4901347;29;20119;-74
2023/01/14 12:36:19;;;;;;;31.30;16.13;;;;;;;;;;4905003;29;20032;-75
2023/01/14 12:47:27;;;;;;;33.15;16.20;;;;;;;;;;4886624;29;20105;-74
2023/01/14 12:49:53;;;;;;;30.63;17.08;;;;;;;;;;4905318;29;20063;-74
2023/01/14 12:52:33;;;;;;;30.40;15.75;;;;;;;;;;4903059;29;20072;-74
2023/01/14 12:55:00;;;;;;;37.80;18.65;;;;;;;;;;4903781;29;20119;-75
2023/01/14 12:57:27;;;;;;;25.70;15.43;;;;;;;;;;4904444;29;20107;-75
2023/01/14 13:00:01;;;;;;;27.90;15.57;;;;;;;;;;4892813;29;20037;-73
2023/01/14 13:02:44;;;;;;;27.55;16.35;;;;;;;;;;4890168;29;20740;-74
2023/01/14 13:05:24;;;;;;;25.20;14.25;;;;;;;;;;4902921;29;20036;-74
2023/01/14 13:08:03;;;;;;;28.25;16.38;;;;;;;;;;4891062;29;20510;-74
2023/01/14 13:10:32;;;;;;;28.02;15.13;;;;;;;;;;4894475;29;20100;-76
2023/01/14 13:13:00;;;;;;;24.05;14.60;;;;;;;;;;4900740;29;20024;-74
2023/01/14 13:15:30;;;;;;;23.85;14.70;;;;;;;;;;4903597;29;20040;-72
2023/01/14 13:18:02;;;;;;;24.75;13.23;;;;;;;;;;4902709;29;20028;-73
2023/01/14 13:20:36;;;;;;;21.30;13.77;;;;;;;;;;4900543;29;20045;-73
2023/01/14 13:23:04;;;;;;;23.40;14.40;;;;;;;;;;4881012;29;20041;-73
2023/01/14 13:25:44;;;;;;;23.17;13.57;;;;;;;;;;4864098;29;20494;-72
2023/01/14 13:28:20;;;;;;;21.88;12.98;;;;;;;;;;4898295;29;20032;-73
2023/01/14 13:30:50;;;;;;;25.25;14.23;;;;;;;;;;4898499;29;20550;-73
2023/01/14 13:33:27;;;;;;;22.42;13.50;;;;;;;;;;4898401;29;20047;-77
2023/01/14 13:36:08;;;;;;;25.42;15.40;;;;;;;;;;4904504;29;20035;-73
2023/01/14 13:38:39;;;;;;;23.55;13.95;;;;;;;;;;4898882;29;20040;-74
2023/01/14 13:41:07;;;;;;;30.13;16.80;;;;;;;;;;4894906;29;20052;-74
2023/01/14 13:43:36;;;;;;;28.77;15.98;;;;;;;;;;4899007;29;20475;-76
2023/01/14 13:46:05;;;;;;;26.00;17.15;;;;;;;;;;4898609;29;20036;-72
2023/01/14 13:48:37;;;;;;;26.88;16.55;;;;;;;;;;4875689;29;20462;-74
2023/01/14 13:51:37;;;;;;;33.97;18.85;;;;;;;;;;4897698;29;20129;-74
2023/01/14 13:54:16;;;;;;;34.13;20.38;;;;;;;;;;4889831;29;20060;-72
2023/01/14 13:57:04;;;;;;;36.45;20.85;;;;;;;;;;4891998;29;20036;-74
2023/01/14 13:59:30;;;;;;;37.97;21.42;;;;;;;;;;4893412;29;20045;-73
2023/01/14 14:01:59;;;;;;;40.83;21.90;;;;;;;;;;4892529;29;20020;-72
2023/01/14 14:04:57;;;;;;;33.58;20.65;;;;;;;;;;4877316;29;20044;-72
2023/01/14 14:07:41;;;;;;;39.83;22.05;;;;;;;;;;4895856;29;20120;-73
2023/01/14 14:10:45;;;;;;;35.72;21.63;;;;;;;;;;4902126;29;20108;-72
2023/01/14 14:16:13;;;;;;;39.80;23.00;;;;;;;;;;4861507;29;20087;-73
2023/01/14 14:18:49;;;;;;;49.50;26.08;;;;;;;;;;4887716;29;20044;-73
2023/01/14 14:21:24;;;;;;;44.00;25.27;;;;;;;;;;4897720;29;20048;-74
2023/01/14 14:23:56;;;;;;;49.70;26.33;;;;;;;;;;4893184;29;20041;-75
2023/01/14 14:26:27;;;;;;;43.88;25.90;;;;;;;;;;4900471;29;20036;-75
2023/01/14 14:28:57;;;;;;;51.85;25.90;;;;;;;;;;4892959;29;20029;-75
2023/01/14 14:31:28;;;;;;;43.85;25.17;;;;;;;;;;4878859;29;20036;-74
2023/01/14 14:34:08;;;;;;;58.20;29.33;;;;;;;;;;4891558;29;20120;-75
2023/01/14 14:36:36;;;;;;;43.88;24.70;;;;;;;;;;4885316;29;20414;-73
2023/01/14 14:39:02;;;;;;;48.63;24.08;;;;;;;;;;4878790;29;20123;-73
2023/01/14 14:41:36;;;;;;;65.68;26.73;;;;;;;;;;4894411;29;20044;-74
2023/01/14 14:44:20;;;;;;;163.68;69.57;;;;;;;;;;4899318;29;20087;-75
2023/01/14 14:46:46;;;;;;;59.28;28.75;;;;;;;;;;4865627;29;20565;-73
2023/01/14 14:49:27;;;;;;;43.90;23.33;;;;;;;;;;4897528;29;20104;-72
2023/01/14 14:51:55;;;;;;;45.53;21.55;;;;;;;;;;4896234;29;20047;-72
2023/01/14 14:54:32;;;;;;;40.67;20.42;;;;;;;;;;4883256;29;20029;-73
2023/01/14 14:57:05;;;;;;;36.30;18.98;;;;;;;;;;4900740;29;20127;-73
2023/01/14 14:59:37;;;;;;;40.03;16.90;;;;;;;;;;4898048;29;20522;-73
2023/01/14 15:02:21;;;;;;;25.17;14.45;;;;;;;;;;4903889;29;20055;-74
2023/01/14 15:04:47;;;;;;;24.70;13.95;;;;;;;;;;4881415;29;20529;-72
2023/01/14 15:07:14;;;;;;;27.27;14.70;;;;;;;;;;4879050;29;20033;-73
2023/01/14 15:09:44;;;;;;;30.40;14.30;;;;;;;;;;4899646;29;20080;-72
2023/01/14 15:12:16;;;;;;;37.38;15.60;;;;;;;;;;4898394;29;20079;-72
2023/01/14 15:14:43;;;;;;;30.98;15.73;;;;;;;;;;4895705;29;20032;-73
2023/01/14 15:17:17;;;;;;;30.08;16.00;;;;;;;;;;4894943;29;20041;-73
2023/01/14 15:19:46;;;;;;;34.88;20.02;;;;;;;;;;4892614;29;20040;-74
2023/01/14 15:22:16;;;;;;;34.38;17.88;;;;;;;;;;4898757;29;20033;-73
2023/01/14 15:24:44;;;;;;;33.00;18.42;;;;;;;;;;4898801;29;20052;-72
2023/01/14 15:27:16;;;;;;;32.97;18.20;;;;;;;;;;4900186;29;20115;-72
2023/01/14 15:29:59;;;;;;;33.40;16.23;;;;;;;;;;4890257;29;20040;-73
2023/01/14 15:32:45;;;;;;;24.83;13.95;;;;;;;;;;4901216;29;20036;-71